Time;durP1;ratioP1;P1;durP2;ratioP2;P2;SDS_P1;SDS_P2;PMS_P1;PMS_P2;Temp;Humidity;BMP_temperature;BMP_pressure;BME280_temperature;BME280_humidity;BME280_pressure;Samples;Min_cycle;Max_cycle;Signal;HPM_P1;HPM_P2
2024/04/06 00:01:06;;;;;;;7.43;3.10;;;;;;;11.58;73.75;100269.03;2492860;29;20047;-81
2024/04/06 00:02:19;;;;;;;4.25;3.10;;;;;;;11.54;73.73;100270.00;2488951;28;20031;-78
2024/04/06 00:03:32;;;;;;;3.72;3.00;;;;;;;11.53;73.84;100270.00;2492527;28;20050;-80
2024/04/06 00:04:46;;;;;;;5.00;2.85;;;;;;;11.51;73.90;100269.16;2503244;28;20030;-81
2024/04/06 00:05:59;;;;;;;4.40;3.20;;;;;;;11.49;74.07;100281.44;2487880;29;20058;-78
2024/04/06 00:07:12;;;;;;;6.35;3.42;;;;;;;11.47;73.93;100283.19;2488689;29;20114;-79
2024/04/06 00:08:26;;;;;;;4.35;3.05;;;;;;;11.43;74.15;100274.53;2492756;28;20118;-81
2024/04/06 00:09:39;;;;;;;5.63;3.20;;;;;;;11.42;74.17;100285.88;2504264;28;20396;-79
2024/04/06 00:10:53;;;;;;;7.30;3.20;;;;;;;11.40;74.26;100290.28;2503172;28;20432;-82
2024/04/06 00:12:06;;;;;;;3.90;3.30;;;;;;;11.37;74.29;100282.50;2500573;28;20050;-79
2024/04/06 00:13:20;;;;;;;5.15;2.72;;;;;;;11.35;74.47;100284.25;2497859;28;20033;-80
2024/04/06 00:14:33;;;;;;;8.02;3.45;;;;;;;11.33;74.20;100283.44;2483596;29;20028;-80
2024/04/06 00:15:46;;;;;;;12.70;3.92;;;;;;;11.30;74.13;100289.56;2496495;29;20535;-81
2024/04/06 00:16:59;;;;;;;3.97;3.30;;;;;;;11.26;74.53;100280.06;2497666;28;20028;-79
2024/04/06 00:18:13;;;;;;;7.00;4.35;;;;;;;11.23;74.55;100292.31;2505387;28;20042;-80
2024/04/06 00:19:26;;;;;;;3.85;3.38;;;;;;;11.21;74.57;100287.13;2488411;29;20031;-79
2024/04/06 00:20:39;;;;;;;7.55;4.00;;;;;;;11.19;74.77;100277.59;2487941;29;20029;-79
2024/04/06 00:21:52;;;;;;;5.65;3.85;;;;;;;11.18;75.04;100284.56;2485404;29;20030;-78
2024/04/06 00:23:06;;;;;;;7.95;3.60;;;;;;;11.18;75.16;100283.69;2481315;29;20099;-77
2024/04/06 00:24:19;;;;;;;3.50;3.08;;;;;;;11.16;75.01;100281.13;2480754;29;20070;-78
2024/04/06 00:25:33;;;;;;;4.57;3.00;;;;;;;11.12;74.75;100279.44;2489254;29;20015;-79
2024/04/06 00:26:46;;;;;;;5.45;3.03;;;;;;;11.10;74.53;100278.59;2481577;29;20030;-78
2024/04/06 00:27:59;;;;;;;4.80;3.05;;;;;;;11.09;74.75;100282.09;2491326;29;20046;-79
2024/04/06 00:29:12;;;;;;;6.30;3.85;;;;;;;11.07;74.92;100287.34;2488193;29;20393;-76
2024/04/06 00:30:26;;;;;;;4.82;3.47;;;;;;;11.04;74.94;100286.53;2481526;29;20527;-79
2024/04/06 00:31:39;;;;;;;5.32;4.25;;;;;;;11.01;74.91;100290.06;2490840;28;20043;-79
2024/04/06 00:32:52;;;;;;;8.00;4.47;;;;;;;11.00;74.79;100285.75;2488161;29;20032;-77
2024/04/06 00:34:05;;;;;;;5.45;4.85;;;;;;;11.00;75.11;100287.50;2487852;29;20023;-79
2024/04/06 00:35:19;;;;;;;7.25;3.92;;;;;;;10.99;75.25;100286.59;2481443;29;20035;-78
2024/04/06 00:36:32;;;;;;;7.82;2.97;;;;;;;10.98;75.28;100284.91;2483256;29;20036;-78
2024/04/06 00:37:45;;;;;;;5.10;4.18;;;;;;;10.99;75.39;100290.97;2497536;28;20039;-82
2024/04/06 00:38:59;;;;;;;4.60;3.80;;;;;;;10.97;75.48;100292.75;2487501;29;20019;-78
2024/04/06 00:40:12;;;;;;;9.02;4.13;;;;;;;10.95;75.35;100295.41;2490622;29;20466;-78
2024/04/06 00:41:25;;;;;;;7.72;3.80;;;;;;;10.92;75.39;100295.44;2497607;28;20507;-79
2024/04/06 00:42:38;;;;;;;8.05;3.65;;;;;;;10.90;75.61;100298.06;2489498;29;20222;-78
2024/04/06 00:43:51;;;;;;;10.63;2.97;;;;;;;10.91;75.79;100304.16;2500387;28;20035;-79
2024/04/06 00:45:05;;;;;;;9.30;3.67;;;;;;;10.90;75.82;100305.03;2501675;28;20034;-78
2024/04/06 00:46:18;;;;;;;6.45;3.65;;;;;;;10.89;76.04;100304.19;2494685;29;20185;-80
2024/04/06 00:47:32;;;;;;;4.32;3.17;;;;;;;10.86;76.11;100301.59;2489134;29;20036;-81
2024/04/06 00:48:46;;;;;;;4.28;3.22;;;;;;;10.85;76.07;100307.72;2491529;29;20027;-79
2024/04/06 00:49:59;;;;;;;6.80;3.58;;;;;;;10.81;76.15;100308.63;2492807;29;20412;-79
2024/04/06 00:51:12;;;;;;;5.88;4.28;;;;;;;10.78;76.14;100308.69;2495016;29;20023;-79
2024/04/06 00:52:26;;;;;;;5.32;2.88;;;;;;;10.74;76.08;100311.38;2488242;29;20052;-82
2024/04/06 00:53:39;;;;;;;6.13;3.63;;;;;;;10.68;76.10;100320.16;2494614;28;20027;-78
2024/04/06 00:54:52;;;;;;;4.43;3.53;;;;;;;10.64;76.09;100310.66;2492799;29;20023;-78
2024/04/06 00:56:06;;;;;;;4.72;4.30;;;;;;;10.60;76.42;100311.56;2482688;29;20123;-78
2024/04/06 00:57:19;;;;;;;10.48;3.40;;;;;;;10.55;76.45;100310.78;2480821;29;20034;-80
2024/04/06 00:58:33;;;;;;;4.22;3.53;;;;;;;10.52;76.27;100316.03;2499581;28;20031;-78
2024/04/06 00:59:46;;;;;;;4.18;3.78;;;;;;;10.47;76.59;100313.50;2493046;29;20043;-78
2024/04/06 01:00:59;;;;;;;6.93;4.13;;;;;;;10.43;76.76;100319.66;2497460;28;20162;-79
2024/04/06 01:02:13;;;;;;;5.85;3.22;;;;;;;10.39;77.01;100316.19;2501233;28;20058;-77
2024/04/06 01:03:26;;;;;;;6.03;3.95;;;;;;;10.36;76.85;100312.78;2487390;29;20572;-80
2024/04/06 01:04:40;;;;;;;9.60;3.47;;;;;;;10.32;76.97;100313.69;2475231;29;20106;-78
2024/04/06 01:05:53;;;;;;;6.28;3.47;;;;;;;10.28;77.06;100310.28;2477492;29;20020;-77
2024/04/06 01:07:06;;;;;;;4.35;3.58;;;;;;;10.26;77.13;100315.47;2481270;29;20041;-80
2024/04/06 01:08:19;;;;;;;7.43;3.72;;;;;;;10.24;77.26;100306.78;2478983;29;20051;-77
2024/04/06 01:09:33;;;;;;;4.20;3.35;;;;;;;10.21;77.29;100317.25;2479676;29;20039;-79
2024/04/06 01:10:46;;;;;;;13.88;4.43;;;;;;;10.19;77.38;100307.72;2484995;28;20063;-77
2024/04/06 01:11:59;;;;;;;4.05;2.95;;;;;;;10.15;77.36;100306.91;2487601;29;20517;-79
2024/04/06 01:13:13;;;;;;;4.53;3.80;;;;;;;10.13;77.40;100313.03;2484875;29;20040;-78
2024/04/06 01:14:26;;;;;;;8.60;3.60;;;;;;;10.11;77.57;100314.78;2498113;28;20022;-78
2024/04/06 01:15:39;;;;;;;8.23;3.42;;;;;;;10.07;77.52;100311.38;2487314;29;20035;-79
2024/04/06 01:16:52;;;;;;;10.00;4.13;;;;;;;10.07;77.51;100320.91;2481053;29;20758;-80
2024/04/06 01:18:06;;;;;;;4.45;3.58;;;;;;;10.05;77.75;100313.97;2491618;29;20515;-79
2024/04/06 01:19:19;;;;;;;4.68;3.42;;;;;;;10.07;77.78;100313.09;2497786;28;20041;-79
2024/04/06 01:20:34;;;;;;;5.70;3.63;;;;;;;10.04;77.72;100314.88;2494880;29;20031;-80
2024/04/06 01:21:47;;;;;;;5.15;4.40;;;;;;;10.04;77.74;100304.44;2480088;29;20466;-78
2024/04/06 01:23:00;;;;;;;8.85;3.40;;;;;;;10.03;78.06;100314.88;2486136;29;20027;-80
2024/04/06 01:24:26;;;;;;;5.32;4.05;;;;;;;10.02;77.87;100310.56;2496828;29;20043;-81
2024/04/06 01:25:40;;;;;;;4.50;3.45;;;;;;;10.01;77.84;100314.03;2486649;29;20521;-79
2024/04/06 01:26:54;;;;;;;9.63;4.75;;;;;;;9.98;77.84;100311.47;2481644;29;20122;-80
2024/04/06 01:28:07;;;;;;;7.13;4.20;;;;;;;9.97;78.06;100314.97;2473610;29;20047;-79
2024/04/06 01:29:22;;;;;;;8.68;3.85;;;;;;;9.96;77.97;100315.81;2491541;28;20059;-81
2024/04/06 01:30:37;;;;;;;5.20;3.80;;;;;;;9.95;78.07;100320.19;2496033;29;20030;-79
2024/04/06 01:31:50;;;;;;;5.38;3.95;;;;;;;9.93;78.22;100321.94;2491970;29;20047;-79
2024/04/06 01:33:03;;;;;;;3.95;3.22;;;;;;;9.91;78.23;100322.84;2493442;29;20038;-79
2024/04/06 01:34:17;;;;;;;3.75;3.45;;;;;;;9.87;77.95;100322.03;2488438;29;20031;-81
2024/04/06 01:35:30;;;;;;;10.02;3.78;;;;;;;9.86;78.01;100320.31;2499021;28;20095;-80
2024/04/06 01:36:43;;;;;;;4.45;3.28;;;;;;;9.84;78.13;100319.44;2480761;29;20024;-80
2024/04/06 01:37:56;;;;;;;8.27;3.20;;;;;;;9.82;78.32;100311.63;2485037;29;20016;-81
2024/04/06 01:39:11;;;;;;;3.83;3.53;;;;;;;9.78;78.14;100307.34;2482489;29;20436;-79
2024/04/06 01:40:24;;;;;;;7.20;4.25;;;;;;;9.76;78.29;100310.84;2483180;29;20039;-80
2024/04/06 01:41:38;;;;;;;7.43;3.00;;;;;;;9.73;78.42;100311.75;2483968;29;20040;-79
2024/04/06 01:42:51;;;;;;;5.72;3.50;;;;;;;9.72;78.59;100314.38;2494116;29;20055;-77
2024/04/06 01:44:05;;;;;;;7.05;4.22;;;;;;;9.70;78.44;100298.72;2491631;29;20040;-80
2024/04/06 01:45:18;;;;;;;5.70;4.03;;;;;;;9.68;78.55;100305.72;2495780;29;20513;-79
2024/04/06 01:46:33;;;;;;;5.30;3.70;;;;;;;9.67;78.43;100308.34;2482447;29;20056;-79
2024/04/06 01:47:46;;;;;;;4.65;3.65;;;;;;;9.67;78.83;100305.72;2481797;29;20099;-79
2024/04/06 01:49:00;;;;;;;3.90;3.50;;;;;;;9.65;78.91;100297.06;2496107;28;20436;-80
2024/04/06 01:50:13;;;;;;;7.93;4.05;;;;;;;9.65;78.90;100304.88;2494415;29;20035;-80
2024/04/06 01:51:26;;;;;;;5.05;3.42;;;;;;;9.64;78.81;100296.22;2492314;28;20030;-79
2024/04/06 01:52:39;;;;;;;4.75;3.97;;;;;;;9.63;79.05;100289.28;2478458;29;20024;-80
2024/04/06 01:53:53;;;;;;;5.45;3.75;;;;;;;9.60;78.86;100298.00;2489023;28;20069;-79
2024/04/06 01:55:06;;;;;;;4.18;3.70;;;;;;;9.58;79.09;100297.13;2494019;29;20030;-79
2024/04/06 01:56:19;;;;;;;7.80;3.85;;;;;;;9.57;78.86;100290.19;2487320;28;20036;-80
2024/04/06 01:57:32;;;;;;;4.75;3.55;;;;;;;9.56;79.04;100296.28;2498955;28;20026;-80
2024/04/06 01:58:46;;;;;;;6.60;3.63;;;;;;;9.56;78.82;100291.06;2494648;29;20026;-79
2024/04/06 01:59:59;;;;;;;5.75;4.22;;;;;;;9.57;79.20;100295.38;2482888;29;20033;-80
2024/04/06 02:01:13;;;;;;;6.03;3.55;;;;;;;9.56;79.13;100291.06;2498213;28;20030;-78
2024/04/06 02:02:26;;;;;;;4.38;3.85;;;;;;;9.54;79.26;100295.44;2497929;29;20031;-78
2024/04/06 02:03:39;;;;;;;4.72;3.33;;;;;;;9.53;79.26;100290.25;2501757;28;20074;-80
2024/04/06 02:04:52;;;;;;;6.15;4.13;;;;;;;9.52;79.49;100284.16;2489823;29;20030;-80
2024/04/06 02:06:08;;;;;;;7.88;3.60;;;;;;;9.52;79.37;100284.16;2497469;28;20026;-78
2024/04/06 02:07:22;;;;;;;6.00;3.78;;;;;;;9.51;78.93;100277.22;2490209;29;20375;-80
2024/04/06 02:08:35;;;;;;;5.05;3.55;;;;;;;9.50;79.23;100277.22;2499905;28;20029;-80
2024/04/06 02:09:49;;;;;;;4.22;3.80;;;;;;;9.46;79.18;100279.03;2491664;29;20046;-80
2024/04/06 02:11:03;;;;;;;4.50;3.28;;;;;;;9.44;79.42;100275.56;2477842;29;20051;-79
2024/04/06 02:12:17;;;;;;;6.65;4.07;;;;;;;9.42;79.18;100274.69;2485661;29;20119;-79
2024/04/06 02:13:30;;;;;;;4.90;3.13;;;;;;;9.41;79.55;100273.00;2486316;28;20063;-80
2024/04/06 02:14:43;;;;;;;4.90;3.85;;;;;;;9.41;79.46;100270.38;2481544;29;20024;-80
2024/04/06 02:15:57;;;;;;;7.18;3.40;;;;;;;9.39;79.33;100272.13;2485463;29;20118;-79
2024/04/06 02:17:10;;;;;;;8.93;3.53;;;;;;;9.37;79.41;100284.31;2485741;29;20457;-79
2024/04/06 02:18:23;;;;;;;7.85;4.07;;;;;;;9.33;79.34;100278.28;2489148;29;20042;-80
2024/04/06 02:19:36;;;;;;;7.70;3.58;;;;;;;9.29;79.24;100280.91;2492137;29;20058;-79
2024/04/06 02:20:50;;;;;;;7.13;3.15;;;;;;;9.24;79.37;100280.97;2492448;29;20020;-79
2024/04/06 02:22:03;;;;;;;4.80;3.40;;;;;;;9.20;79.38;100278.41;2488714;29;20063;-78
2024/04/06 02:23:16;;;;;;;6.75;3.55;;;;;;;9.17;79.62;100271.50;2485518;29;20028;-78
2024/04/06 02:24:30;;;;;;;4.72;4.13;;;;;;;9.15;79.51;100268.03;2495420;28;20032;-80
2024/04/06 02:25:44;;;;;;;5.30;4.25;;;;;;;9.11;79.63;100269.81;2497894;28;20027;-80
2024/04/06 02:26:57;;;;;;;5.03;4.32;;;;;;;9.11;79.38;100266.31;2502098;28;20090;-81
2024/04/06 02:28:10;;;;;;;6.25;3.90;;;;;;;9.11;79.78;100271.53;2506833;28;20038;-78
2024/04/06 02:29:24;;;;;;;3.90;3.38;;;;;;;9.13;79.55;100267.19;2496149;29;20027;-78
2024/04/06 02:30:38;;;;;;;6.60;3.72;;;;;;;9.14;79.81;100263.72;2487652;28;20038;-79
2024/04/06 02:31:52;;;;;;;5.55;3.38;;;;;;;9.14;79.57;100269.78;2504931;28;20035;-80
2024/04/06 02:33:05;;;;;;;4.85;4.10;;;;;;;9.15;79.90;100266.28;2492410;29;20031;-80
2024/04/06 02:34:19;;;;;;;6.80;3.83;;;;;;;9.16;79.46;100265.44;2487856;29;20027;-79
2024/04/06 02:35:32;;;;;;;3.88;3.47;;;;;;;9.15;79.52;100262.81;2489869;29;20131;-80
2024/04/06 02:36:45;;;;;;;4.53;3.67;;;;;;;9.13;79.72;100273.25;2497918;28;20023;-81
2024/04/06 02:37:58;;;;;;;5.85;3.28;;;;;;;9.12;79.57;100268.06;2487976;29;20023;-78
2024/04/06 02:39:12;;;;;;;4.10;3.63;;;;;;;9.10;79.78;100270.66;2484878;29;20662;-80
2024/04/06 02:40:26;;;;;;;7.45;3.35;;;;;;;9.09;79.66;100279.38;2499238;28;20043;-78
2024/04/06 02:41:39;;;;;;;3.80;3.40;;;;;;;9.07;79.62;100281.13;2500023;28;20090;-80
2024/04/06 02:42:52;;;;;;;4.43;3.15;;;;;;;9.06;79.76;100278.50;2507510;28;20090;-80
2024/04/06 02:44:05;;;;;;;4.72;3.53;;;;;;;9.02;79.58;100272.47;2491302;29;20046;-81
2024/04/06 02:45:19;;;;;;;4.43;3.38;;;;;;;9.00;79.60;100279.44;2497426;28;20121;-79
2024/04/06 02:46:32;;;;;;;5.00;3.50;;;;;;;8.98;79.88;100285.53;2488240;29;20563;-79
2024/04/06 02:47:45;;;;;;;5.70;4.05;;;;;;;8.94;79.72;100293.34;2480788;29;20035;-79
2024/04/06 02:48:59;;;;;;;5.15;3.65;;;;;;;8.92;79.78;100287.28;2490678;29;20037;-80
2024/04/06 02:50:12;;;;;;;9.52;3.55;;;;;;;8.92;79.86;100286.44;2498380;28;20030;-79
2024/04/06 02:51:26;;;;;;;7.13;3.15;;;;;;;8.90;79.89;100296.84;2487400;29;20019;-80
2024/04/06 02:52:40;;;;;;;4.95;4.03;;;;;;;8.90;80.01;100299.44;2498923;28;20023;-79
2024/04/06 02:53:53;;;;;;;7.90;4.07;;;;;;;8.87;80.15;100299.47;2507338;28;20029;-80
2024/04/06 02:55:07;;;;;;;6.15;3.13;;;;;;;8.85;79.99;100300.38;2496921;29;20432;-80
2024/04/06 02:56:21;;;;;;;11.25;4.88;;;;;;;8.83;80.16;100297.78;2489536;29;20720;-81
2024/04/06 02:57:34;;;;;;;4.25;3.85;;;;;;;8.84;80.26;100298.66;2488145;29;20035;-79
2024/04/06 02:58:47;;;;;;;3.97;3.58;;;;;;;8.80;80.24;100292.59;2491730;29;20035;-79
2024/04/06 03:00:01;;;;;;;8.45;4.20;;;;;;;8.78;80.17;100296.06;2486555;29;20039;-81
2024/04/06 03:01:14;;;;;;;3.08;2.78;;;;;;;8.72;80.14;100284.88;2490759;29;20361;-80
2024/04/06 03:02:27;;;;;;;7.68;3.50;;;;;;;8.72;80.00;100297.88;2495751;29;20031;-78
2024/04/06 03:03:40;;;;;;;4.85;3.58;;;;;;;8.70;80.06;100290.94;2498175;28;20069;-80
2024/04/06 03:04:54;;;;;;;5.63;3.20;;;;;;;8.66;80.12;100287.47;2490800;29;20078;-80
2024/04/06 03:06:07;;;;;;;5.78;3.50;;;;;;;8.64;80.11;100297.03;2499368;28;20030;-79
2024/04/06 03:07:20;;;;;;;4.72;4.32;;;;;;;8.62;80.17;100283.19;2507197;28;20038;-79
2024/04/06 03:08:34;;;;;;;5.47;3.70;;;;;;;8.62;80.27;100283.19;2503555;28;20019;-79
2024/04/06 03:09:47;;;;;;;12.95;4.03;;;;;;;8.64;80.15;100284.03;2489635;29;20030;-80
2024/04/06 03:11:00;;;;;;;6.07;3.88;;;;;;;8.64;80.22;100280.56;2500183;28;20054;-81
2024/04/06 03:12:14;;;;;;;4.47;3.13;;;;;;;8.65;80.37;100279.72;2500422;28;20031;-80
2024/04/06 03:13:27;;;;;;;6.53;3.53;;;;;;;8.62;80.11;100274.50;2494684;29;20110;-80
2024/04/06 03:14:40;;;;;;;5.13;4.60;;;;;;;8.62;80.15;100282.31;2487653;29;20031;-80
2024/04/06 03:15:53;;;;;;;7.70;2.90;;;;;;;8.61;80.44;100270.19;2480360;29;20473;-79
2024/04/06 03:17:07;;;;;;;7.18;4.07;;;;;;;8.60;80.55;100274.53;2482352;29;20043;-80
2024/04/06 03:18:20;;;;;;;4.90;3.67;;;;;;;8.58;80.45;100270.22;2471058;29;20020;-80
2024/04/06 03:19:33;;;;;;;6.15;4.43;;;;;;;8.57;80.44;100278.88;2484070;28;20614;-79
2024/04/06 03:20:46;;;;;;;4.82;3.83;;;;;;;8.55;80.67;100278.03;2496430;29;20031;-80
2024/04/06 03:22:00;;;;;;;6.97;3.92;;;;;;;8.52;80.26;100278.94;2492498;29;20047;-80
2024/04/06 03:23:13;;;;;;;5.70;3.85;;;;;;;8.51;80.60;100282.38;2476878;29;20032;-80
2024/04/06 03:24:26;;;;;;;9.15;4.10;;;;;;;8.48;80.56;100291.06;2475918;29;20043;-79
2024/04/06 03:25:39;;;;;;;4.63;3.13;;;;;;;8.45;80.70;100285.03;2487396;29;20031;-79
2024/04/06 03:26:53;;;;;;;8.38;5.60;;;;;;;8.40;80.58;100279.84;2480442;29;20035;-81
2024/04/06 03:28:06;;;;;;;7.75;3.83;;;;;;;8.38;80.75;100273.75;2484440;29;20036;-79
2024/04/06 03:29:19;;;;;;;6.35;4.22;;;;;;;8.39;80.93;100285.00;2482498;29;20103;-80
2024/04/06 03:30:33;;;;;;;6.88;4.57;;;;;;;8.39;80.64;100290.22;2488912;29;20027;-81
2024/04/06 03:31:46;;;;;;;6.25;4.53;;;;;;;8.37;80.66;100286.78;2480811;29;20055;-79
2024/04/06 03:32:59;;;;;;;7.45;3.78;;;;;;;8.34;80.67;100298.06;2474719;29;20042;-79
2024/04/06 03:34:12;;;;;;;6.35;4.60;;;;;;;8.34;80.61;100298.06;2490830;29;20023;-80
2024/04/06 03:35:26;;;;;;;5.43;3.85;;;;;;;8.34;80.85;100297.16;2496618;29;20034;-81
2024/04/06 03:36:39;;;;;;;5.55;3.85;;;;;;;8.33;80.58;100300.66;2487628;28;20012;-81
2024/04/06 03:37:52;;;;;;;4.53;3.60;;;;;;;8.28;80.52;100303.28;2487188;29;20023;-79
2024/04/06 03:39:05;;;;;;;5.63;4.40;;;;;;;8.25;80.77;100298.94;2487616;29;20026;-80
2024/04/06 03:40:18;;;;;;;5.75;3.60;;;;;;;8.25;80.52;100300.69;2492186;29;20098;-79
2024/04/06 03:41:32;;;;;;;8.13;3.83;;;;;;;8.23;80.78;100303.28;2493199;29;20078;-80
2024/04/06 03:42:55;;;;;;;7.53;4.05;;;;;;;8.22;80.75;100304.16;2485083;29;20023;-81
2024/04/06 03:44:09;;;;;;;6.00;3.88;;;;;;;8.20;80.72;100302.44;2487885;29;20568;-80
2024/04/06 03:45:22;;;;;;;7.78;4.25;;;;;;;8.20;80.82;100298.09;2489833;29;20027;-80
2024/04/06 03:46:36;;;;;;;5.75;4.10;;;;;;;8.19;80.62;100293.78;2481623;29;20082;-79
2024/04/06 03:47:50;;;;;;;5.53;3.70;;;;;;;8.18;80.98;100286.84;2488261;29;20150;-80
2024/04/06 03:49:04;;;;;;;5.22;3.75;;;;;;;8.19;81.05;100287.72;2481448;29;20024;-81
2024/04/06 03:50:17;;;;;;;4.53;4.13;;;;;;;8.21;80.78;100291.16;2491420;29;20102;-78
2024/04/06 03:51:31;;;;;;;7.20;4.35;;;;;;;8.18;80.95;100296.38;2484031;29;20031;-79
2024/04/06 03:52:45;;;;;;;5.45;4.72;;;;;;;8.15;81.08;100302.47;2495579;28;20503;-80
2024/04/06 03:53:58;;;;;;;5.05;4.13;;;;;;;8.12;81.01;100299.88;2484728;29;20051;-81
2024/04/06 03:55:11;;;;;;;7.85;3.22;;;;;;;8.10;81.01;100296.41;2471842;29;20028;-80
2024/04/06 03:56:24;;;;;;;4.15;3.75;;;;;;;8.09;81.17;100308.56;2487766;29;20032;-80
2024/04/06 03:57:37;;;;;;;6.50;3.50;;;;;;;8.10;81.29;100309.41;2496336;28;20513;-79
2024/04/06 03:58:51;;;;;;;4.85;3.97;;;;;;;8.09;81.21;100310.31;2499801;28;20019;-80
2024/04/06 04:00:13;;;;;;;5.45;3.97;;;;;;;8.07;81.15;100310.28;2502322;28;20057;-80
2024/04/06 04:01:26;;;;;;;5.38;3.97;;;;;;;8.06;81.38;100303.38;2494927;28;20114;-80
2024/04/06 04:02:40;;;;;;;6.93;4.22;;;;;;;8.07;81.68;100302.50;2490292;29;20039;-79
2024/04/06 04:03:53;;;;;;;6.93;4.85;;;;;;;8.08;81.44;100300.78;2484212;29;20644;-80
2024/04/06 04:05:08;;;;;;;10.73;4.93;;;;;;;8.10;81.52;100301.63;2488514;29;20110;-78
2024/04/06 04:06:21;;;;;;;5.85;4.13;;;;;;;8.09;81.41;100303.34;2484940;29;20031;-79
2024/04/06 04:07:35;;;;;;;5.85;5.18;;;;;;;8.10;81.37;100306.81;2499214;28;20135;-78
2024/04/06 04:08:48;;;;;;;5.10;4.28;;;;;;;8.08;81.47;100305.97;2488433;29;20038;-78
2024/04/06 04:10:06;;;;;;;5.10;3.65;;;;;;;8.06;81.39;100307.72;2492323;29;20121;-81
2024/04/06 04:11:19;;;;;;;7.95;4.50;;;;;;;8.05;81.39;100306.84;2493873;29;20035;-79
2024/04/06 04:12:33;;;;;;;7.95;3.92;;;;;;;8.02;81.54;100299.03;2497927;28;20045;-79
2024/04/06 04:13:46;;;;;;;5.60;3.80;;;;;;;8.00;81.40;100300.81;2485715;29;20028;-80
2024/04/06 04:15:00;;;;;;;6.82;3.42;;;;;;;7.99;81.48;100301.66;2476918;29;20770;-80
2024/04/06 04:16:14;;;;;;;11.27;4.40;;;;;;;7.97;81.50;100302.53;2501044;28;20078;-80
2024/04/06 04:17:27;;;;;;;4.68;4.30;;;;;;;7.93;81.39;100299.09;2497575;28;20102;-79
2024/04/06 04:18:40;;;;;;;5.53;3.85;;;;;;;7.91;81.60;100294.78;2491935;28;20035;-81
2024/04/06 04:19:53;;;;;;;6.82;4.05;;;;;;;7.88;81.67;100297.41;2506735;28;20034;-80
2024/04/06 04:21:06;;;;;;;10.25;3.95;;;;;;;7.85;81.46;100299.13;2488723;29;20495;-82
2024/04/06 04:22:20;;;;;;;5.85;3.50;;;;;;;7.84;81.56;100296.53;2493374;29;20023;-82
2024/04/06 04:23:33;;;;;;;6.43;4.25;;;;;;;7.84;81.71;100297.38;2484508;29;20341;-82
2024/04/06 04:24:46;;;;;;;8.55;5.40;;;;;;;7.85;81.85;100299.13;2493216;29;20541;-82
2024/04/06 04:25:59;;;;;;;5.47;4.22;;;;;;;7.86;81.82;100293.03;2479241;29;20035;-81
2024/04/06 04:27:13;;;;;;;8.88;4.47;;;;;;;7.88;81.81;100302.59;2486470;29;20110;-82
2024/04/06 04:28:26;;;;;;;6.05;4.40;;;;;;;7.85;81.95;100293.94;2492517;29;20058;-82
2024/04/06 04:29:39;;;;;;;4.63;3.95;;;;;;;7.85;81.95;100293.94;2487249;29;20031;-81
2024/04/06 04:30:52;;;;;;;6.53;4.90;;;;;;;7.84;82.20;100294.78;2482219;29;20029;-83
2024/04/06 04:32:06;;;;;;;5.72;3.70;;;;;;;7.84;81.98;100305.16;2484250;29;20035;-81
2024/04/06 04:33:19;;;;;;;6.43;4.32;;;;;;;7.83;81.79;100300.84;2486426;29;20473;-82
2024/04/06 04:34:32;;;;;;;6.22;3.42;;;;;;;7.83;82.21;100302.59;2482288;29;20059;-82
2024/04/06 04:35:45;;;;;;;6.78;3.95;;;;;;;7.79;81.90;100301.72;2473197;29;20036;-81
2024/04/06 04:36:58;;;;;;;9.40;3.78;;;;;;;7.76;81.80;100311.25;2488800;28;20035;-82
2024/04/06 04:38:12;;;;;;;4.10;3.40;;;;;;;7.74;81.91;100308.66;2483657;29;20118;-82
2024/04/06 04:39:25;;;;;;;5.30;4.78;;;;;;;7.72;81.98;100307.81;2475119;29;20086;-82
2024/04/06 04:40:39;;;;;;;3.80;3.15;;;;;;;7.70;81.85;100312.16;2482480;29;20031;-81
2024/04/06 04:41:52;;;;;;;5.50;4.15;;;;;;;7.71;81.81;100300.03;2486401;29;20025;-82
2024/04/06 04:43:05;;;;;;;4.53;3.75;;;;;;;7.72;81.98;100302.63;2483898;29;20034;-82
2024/04/06 04:44:18;;;;;;;5.28;3.80;;;;;;;7.71;81.99;100300.88;2488464;29;20532;-82
2024/04/06 04:45:32;;;;;;;5.70;4.10;;;;;;;7.69;81.78;100304.34;2486951;29;20488;-81
2024/04/06 04:46:45;;;;;;;7.65;4.22;;;;;;;7.67;81.92;100301.78;2480229;29;20043;-81
2024/04/06 04:47:58;;;;;;;12.68;4.80;;;;;;;7.65;81.77;100303.50;2485379;29;20039;-83
2024/04/06 04:49:11;;;;;;;5.60;4.63;;;;;;;7.63;81.70;100313.03;2479250;29;20035;-81
2024/04/06 04:50:24;;;;;;;5.47;3.67;;;;;;;7.59;82.04;100319.97;2485429;29;20122;-82
2024/04/06 04:51:38;;;;;;;6.53;3.08;;;;;;;7.57;81.72;100315.66;2480252;29;20187;-82
2024/04/06 04:52:52;;;;;;;5.65;3.65;;;;;;;7.54;81.89;100315.66;2486018;29;20083;-83
2024/04/06 04:54:05;;;;;;;4.13;3.63;;;;;;;7.52;81.88;100314.78;2473967;29;20035;-82
2024/04/06 04:55:19;;;;;;;4.05;3.53;;;;;;;7.50;82.23;100319.13;2478156;29;20774;-82
2024/04/06 04:56:32;;;;;;;4.95;3.97;;;;;;;7.49;81.79;100320.00;2472429;29;20028;-83
2024/04/06 04:57:45;;;;;;;6.32;3.42;;;;;;;7.49;81.78;100314.81;2464881;29;20399;-80
2024/04/06 04:58:58;;;;;;;4.05;3.63;;;;;;;7.51;81.81;100324.31;2472698;29;20042;-83
2024/04/06 05:00:12;;;;;;;4.78;4.22;;;;;;;7.51;82.00;100323.44;2473076;29;20561;-83
2024/04/06 05:01:25;;;;;;;6.32;3.92;;;;;;;7.51;81.89;100326.03;2482485;29;20035;-83
2024/04/06 05:02:38;;;;;;;5.53;3.17;;;;;;;7.53;81.70;100332.09;2485162;29;20111;-83
2024/04/06 05:03:52;;;;;;;6.50;3.58;;;;;;;7.54;81.98;100324.31;2495484;28;20089;-82
2024/04/06 05:05:05;;;;;;;4.93;3.90;;;;;;;7.56;82.04;100326.88;2495313;28;20039;-82
2024/04/06 05:06:19;;;;;;;4.68;3.75;;;;;;;7.54;82.06;100333.84;2492189;29;20040;-81
2024/04/06 05:07:32;;;;;;;4.63;3.88;;;;;;;7.55;81.93;100335.56;2492366;28;20035;-83
2024/04/06 05:08:45;;;;;;;5.72;3.63;;;;;;;7.56;82.07;100326.88;2478759;29;20118;-82
2024/04/06 05:09:59;;;;;;;5.10;3.80;;;;;;;7.57;82.03;100334.69;2472927;29;20028;-81
2024/04/06 05:11:12;;;;;;;5.43;3.80;;;;;;;7.60;82.00;100329.47;2487058;29;20115;-82
2024/04/06 05:12:25;;;;;;;6.30;3.92;;;;;;;7.64;82.02;100336.41;2491838;28;20085;-82
2024/04/06 05:13:39;;;;;;;12.57;5.00;;;;;;;7.69;82.00;100333.78;2486893;28;20426;-83
2024/04/06 05:14:52;;;;;;;5.63;3.50;;;;;;;7.72;82.08;100343.31;2489232;29;20458;-81
2024/04/06 05:16:05;;;;;;;5.13;3.75;;;;;;;7.71;81.66;100337.25;2488081;28;20521;-83
2024/04/06 05:17:19;;;;;;;5.43;3.53;;;;;;;7.74;81.58;100334.63;2485804;29;20032;-82
2024/04/06 05:18:32;;;;;;;4.50;4.03;;;;;;;7.76;82.27;100350.22;2485233;29;20031;-82
2024/04/06 05:19:45;;;;;;;4.95;4.45;;;;;;;7.76;81.87;100338.09;2483204;29;20163;-82
2024/04/06 05:21:00;;;;;;;6.97;3.92;;;;;;;7.80;81.77;100342.44;2478876;29;20547;-82
2024/04/06 05:22:14;;;;;;;7.13;3.78;;;;;;;7.83;81.74;100349.34;2479785;29;20087;-82
2024/04/06 05:23:27;;;;;;;8.85;4.13;;;;;;;7.88;81.69;100351.94;2485647;29;20559;-82
2024/04/06 05:24:41;;;;;;;9.70;4.88;;;;;;;7.92;81.69;100346.72;2484831;29;20019;-83
2024/04/06 05:25:54;;;;;;;18.10;3.80;;;;;;;7.98;81.65;100343.28;2484923;29;20414;-83
2024/04/06 05:27:08;;;;;;;6.15;3.70;;;;;;;8.04;81.73;100345.84;2479532;29;20031;-83
2024/04/06 05:28:23;;;;;;;4.35;3.72;;;;;;;8.12;81.61;100348.41;2479733;29;20040;-83
2024/04/06 05:29:36;;;;;;;7.95;3.60;;;;;;;8.18;81.62;100354.44;2493367;29;20042;-83
2024/04/06 05:30:50;;;;;;;9.63;3.63;;;;;;;8.23;81.15;100344.03;2486887;29;20031;-83
2024/04/06 05:32:04;;;;;;;4.57;4.18;;;;;;;8.28;81.33;100344.88;2472675;29;20070;-83
2024/04/06 05:33:19;;;;;;;3.58;3.13;;;;;;;8.35;81.17;100343.13;2483214;29;20433;-83
2024/04/06 05:34:32;;;;;;;6.05;2.90;;;;;;;8.39;80.97;100347.41;2489889;29;20027;-81
2024/04/06 05:35:48;;;;;;;8.60;3.38;;;;;;;8.45;80.90;100337.91;2487132;29;20051;-82
2024/04/06 05:37:01;;;;;;;5.90;3.00;;;;;;;8.51;80.82;100343.06;2488299;28;20035;-80
2024/04/06 05:38:18;;;;;;;5.88;4.32;;;;;;;8.58;80.48;100338.69;2500446;29;20032;-80
2024/04/06 05:39:31;;;;;;;5.70;3.83;;;;;;;8.64;80.39;100336.06;2492070;28;20094;-82
2024/04/06 05:40:45;;;;;;;3.90;2.90;;;;;;;8.72;80.32;100338.59;2487260;29;20031;-82
2024/04/06 05:41:59;;;;;;;8.07;3.95;;;;;;;8.78;80.00;100337.69;2471992;29;20118;-82
2024/04/06 05:43:12;;;;;;;5.65;3.55;;;;;;;8.83;79.87;100344.63;2468753;29;20024;-83
2024/04/06 05:44:25;;;;;;;5.50;3.35;;;;;;;8.90;79.58;100345.44;2470157;29;20074;-82
2024/04/06 05:45:40;;;;;;;4.40;3.45;;;;;;;8.96;79.67;100348.03;2482768;29;20118;-83